createdAt,value
2017-09-09T00:01:16.890Z,91.10
2017-09-09T00:03:43.639Z,90.34
2017-09-09T00:06:10.101Z,89.65
2017-09-09T00:08:36.962Z,91.93
2017-09-09T00:11:03.372Z,89.57
2017-09-09T00:13:30.474Z,88.35
2017-09-09T00:15:56.811Z,88.35
2017-09-09T00:18:23.621Z,88.46
2017-09-09T00:20:50.090Z,88.81
2017-09-09T00:23:16.444Z,89.36
2017-09-09T00:25:45.038Z,90.51
2017-09-09T00:28:11.425Z,91.42
2017-09-09T00:30:38.868Z,90.04
2017-09-09T00:33:05.288Z,89.80
2017-09-09T00:35:32.238Z,92.25
2017-09-09T00:37:58.955Z,92.48
2017-09-09T00:40:25.358Z,93.40
2017-09-09T00:42:51.823Z,93.10
2017-09-09T00:45:18.194Z,94.11
2017-09-09T00:47:44.651Z,94.07
2017-09-09T00:50:11.134Z,93.37
2017-09-09T00:52:37.659Z,92.06
2017-09-09T00:55:04.066Z,92.69
2017-09-09T00:57:30.940Z,93.60
2017-09-09T00:59:58.142Z,93.54
2017-09-09T01:02:24.499Z,93.49
2017-09-09T01:04:50.982Z,93.83
2017-09-09T01:07:17.419Z,94.07
2017-09-09T01:09:43.794Z,92.71
2017-09-09T01:12:10.254Z,93.10
2017-09-09T01:14:36.731Z,94.12
2017-09-09T01:17:03.171Z,94.26
2017-09-09T01:19:29.642Z,91.59
2017-09-09T01:21:56.050Z,92.09
2017-09-09T01:24:22.487Z,93.76
2017-09-09T01:26:48.918Z,91.74
2017-09-09T01:29:16.177Z,92.34
2017-09-09T01:31:42.559Z,93.08
2017-09-09T01:34:08.909Z,92.02
2017-09-09T01:36:35.310Z,91.19
2017-09-09T01:39:01.707Z,93.41
2017-09-09T01:41:28.144Z,92.21
2017-09-09T01:43:59.728Z,92.88
2017-09-09T01:46:26.110Z,94.16
2017-09-09T01:48:52.643Z,94.28
2017-09-09T01:51:19.001Z,93.93
2017-09-09T01:53:45.471Z,94.47
2017-09-09T01:56:12.080Z,94.84
2017-09-09T01:58:38.507Z,95.43
2017-09-09T02:01:04.911Z,95.08
2017-09-09T02:03:31.294Z,95.31
2017-09-09T02:05:57.642Z,95.61
2017-09-09T02:08:23.974Z,95.40
2017-09-09T02:10:50.293Z,95.29
2017-09-09T02:13:16.798Z,95.49
2017-09-09T02:15:43.188Z,95.52
2017-09-09T02:18:09.535Z,95.22
2017-09-09T02:20:36.262Z,94.63
2017-09-09T02:23:02.643Z,95.54
2017-09-09T02:25:34.159Z,95.66
2017-09-09T02:28:00.528Z,95.85
2017-09-09T02:30:26.904Z,95.75
2017-09-09T02:32:53.320Z,95.02
2017-09-09T02:35:19.733Z,94.88
2017-09-09T02:37:46.160Z,94.96
2017-09-09T02:40:12.634Z,94.71
2017-09-09T02:42:39.027Z,94.02
2017-09-09T02:45:05.475Z,94.77
2017-09-09T02:47:31.923Z,95.51
2017-09-09T02:49:58.360Z,95.42
2017-09-09T02:52:24.849Z,94.70
2017-09-09T02:54:51.215Z,93.05
2017-09-09T02:57:17.562Z,92.10
2017-09-09T02:59:44.045Z,91.55
2017-09-09T03:02:10.508Z,92.63
2017-09-09T03:04:36.911Z,92.74
2017-09-09T03:07:04.224Z,94.02
2017-09-09T03:09:30.543Z,93.20
2017-09-09T03:11:57.575Z,94.62
2017-09-09T03:14:23.974Z,94.79
2017-09-09T03:16:50.409Z,93.99
2017-09-09T03:19:16.783Z,94.74
2017-09-09T03:21:43.183Z,95.58
2017-09-09T03:24:09.673Z,94.06
2017-09-09T03:26:36.076Z,95.25
2017-09-09T03:29:02.495Z,95.83
2017-09-09T03:31:28.942Z,95.57
2017-09-09T03:33:55.395Z,96.11
2017-09-09T03:36:22.838Z,95.87
2017-09-09T03:38:49.251Z,95.95
2017-09-09T03:41:15.720Z,95.58
2017-09-09T03:43:42.222Z,93.89
2017-09-09T03:46:08.615Z,92.22
2017-09-09T03:48:35.003Z,91.77
2017-09-09T03:51:01.424Z,92.33
2017-09-09T03:53:27.825Z,93.53
2017-09-09T03:55:54.135Z,93.40
2017-09-09T03:58:20.478Z,93.35
2017-09-09T04:00:46.806Z,94.35
2017-09-09T04:03:13.210Z,93.53
2017-09-09T04:05:39.582Z,94.95
2017-09-09T04:08:05.928Z,95.17
2017-09-09T04:10:32.270Z,95.08
2017-09-09T04:12:58.736Z,94.34
2017-09-09T04:15:25.170Z,94.39
2017-09-09T04:17:51.590Z,94.07
2017-09-09T04:20:17.907Z,93.65
2017-09-09T04:22:44.270Z,93.79
2017-09-09T04:25:10.697Z,93.40
2017-09-09T04:27:37.129Z,94.35
2017-09-09T04:30:03.494Z,94.50
2017-09-09T04:32:29.915Z,94.61
2017-09-09T04:34:56.348Z,95.11
2017-09-09T04:37:22.678Z,95.15
2017-09-09T04:39:49.455Z,95.22
2017-09-09T04:42:15.912Z,93.79
2017-09-09T04:44:42.451Z,93.03
2017-09-09T04:47:08.878Z,92.67
2017-09-09T04:49:35.190Z,94.54
2017-09-09T04:52:01.823Z,95.00
2017-09-09T04:54:28.171Z,95.35
2017-09-09T04:56:54.604Z,95.40
2017-09-09T04:59:20.962Z,95.50
2017-09-09T05:01:47.283Z,95.73
2017-09-09T05:04:13.772Z,95.84
2017-09-09T05:06:40.250Z,95.88
2017-09-09T05:09:06.644Z,96.02
2017-09-09T05:11:33.062Z,96.14
2017-09-09T05:13:59.535Z,96.27
2017-09-09T05:16:25.931Z,96.13
2017-09-09T05:18:52.550Z,96.29
2017-09-09T05:21:18.966Z,96.30
2017-09-09T05:23:45.379Z,95.96
2017-09-09T05:26:11.809Z,95.48
2017-09-09T05:28:38.242Z,95.04
2017-09-09T05:31:05.774Z,95.07
2017-09-09T05:33:32.184Z,94.80
2017-09-09T05:35:58.719Z,94.14
2017-09-09T05:38:25.170Z,93.64
2017-09-09T05:40:51.534Z,92.97
2017-09-09T05:43:17.926Z,93.13
2017-09-09T05:45:44.278Z,93.09
2017-09-09T05:48:10.756Z,92.45
2017-09-09T05:50:37.260Z,91.87
2017-09-09T05:53:04.230Z,91.92
2017-09-09T05:55:30.851Z,91.42
2017-09-09T05:57:57.461Z,91.02
2017-09-09T06:00:24.066Z,91.09
2017-09-09T06:02:50.970Z,91.04
2017-09-09T06:05:17.470Z,90.41
2017-09-09T06:07:43.902Z,90.22
2017-09-09T06:10:10.264Z,89.08
2017-09-09T06:12:36.684Z,88.67
2017-09-09T06:15:03.082Z,89.11
2017-09-09T06:17:29.478Z,88.55
2017-09-09T06:19:56.440Z,88.92
2017-09-09T06:22:22.909Z,89.00
2017-09-09T06:24:49.323Z,88.38
2017-09-09T06:27:15.753Z,87.48
2017-09-09T06:29:42.523Z,86.34
2017-09-09T06:32:08.947Z,86.01
2017-09-09T06:34:35.410Z,85.77
2017-09-09T06:37:02.412Z,86.01
2017-09-09T06:39:28.845Z,86.74
2017-09-09T06:41:55.280Z,87.20
2017-09-09T06:44:21.819Z,88.00
2017-09-09T06:46:48.274Z,87.56
2017-09-09T06:49:14.706Z,87.95
2017-09-09T06:51:41.182Z,87.86
2017-09-09T06:54:07.579Z,87.88
2017-09-09T06:56:34.207Z,87.23
2017-09-09T06:59:01.212Z,86.99
2017-09-09T07:01:27.889Z,87.32
2017-09-09T07:03:54.551Z,87.09
2017-09-09T07:06:21.086Z,87.17
2017-09-09T07:08:47.909Z,85.76
2017-09-09T07:11:14.268Z,85.43
2017-09-09T07:13:40.867Z,85.28
2017-09-09T07:16:07.338Z,84.47
2017-09-09T07:18:33.961Z,82.59
2017-09-09T07:21:00.703Z,83.37
2017-09-09T07:23:27.507Z,83.03
2017-09-09T07:25:55.895Z,81.91
2017-09-09T07:28:22.723Z,81.78
2017-09-09T07:30:49.187Z,80.28
2017-09-09T07:33:15.658Z,79.12
2017-09-09T07:35:42.126Z,80.32
2017-09-09T07:38:08.492Z,77.73
2017-09-09T07:40:35.265Z,78.67
2017-09-09T07:43:02.382Z,77.82
2017-09-09T07:45:30.869Z,78.61
2017-09-09T07:47:57.922Z,78.05
2017-09-09T07:50:25.146Z,76.57
2017-09-09T07:52:53.084Z,76.58
2017-09-09T07:55:20.284Z,76.86
2017-09-09T07:57:46.631Z,76.35
2017-09-09T08:00:12.986Z,73.91
2017-09-09T08:02:40.749Z,72.95
2017-09-09T08:05:07.136Z,72.89
2017-09-09T08:07:33.540Z,72.80
2017-09-09T08:10:00.574Z,72.17
2017-09-09T08:12:27.039Z,72.66
2017-09-09T08:14:53.982Z,70.27
2017-09-09T08:17:20.608Z,69.07
2017-09-09T08:19:47.476Z,68.06
2017-09-09T08:22:14.582Z,67.18
2017-09-09T08:24:46.673Z,67.25
2017-09-09T08:27:18.208Z,68.07
2017-09-09T08:29:48.714Z,64.93
2017-09-09T08:32:15.562Z,65.17
2017-09-09T08:34:48.115Z,66.44
2017-09-09T08:37:20.445Z,65.03
2017-09-09T08:39:53.356Z,65.26
2017-09-09T08:42:20.034Z,68.34
2017-09-09T08:44:53.921Z,67.16
2017-09-09T08:47:24.231Z,67.79
2017-09-09T08:49:51.110Z,66.38
2017-09-09T08:52:20.671Z,67.09
2017-09-09T08:54:51.402Z,66.99
2017-09-09T08:57:24.298Z,65.82
2017-09-09T08:59:56.470Z,66.24
2017-09-09T09:02:29.349Z,66.32
2017-09-09T09:05:00.633Z,65.14
2017-09-09T09:07:31.893Z,66.12
2017-09-09T09:10:05.071Z,66.41
2017-09-09T09:12:32.324Z,66.74
2017-09-09T09:15:04.334Z,66.29
2017-09-09T09:17:36.496Z,64.38
2017-09-09T09:20:08.803Z,64.79
2017-09-09T09:22:41.767Z,63.05
2017-09-09T09:25:13.682Z,63.42
2017-09-09T09:27:46.012Z,61.33
2017-09-09T09:30:12.618Z,60.30
2017-09-09T09:32:39.097Z,59.20
2017-09-09T09:35:05.491Z,56.10
2017-09-09T09:37:31.922Z,57.75
2017-09-09T09:39:58.275Z,55.86
2017-09-09T09:42:24.778Z,57.10
2017-09-09T09:44:51.270Z,57.10
2017-09-09T09:47:17.690Z,57.53
2017-09-09T09:49:44.124Z,57.41
2017-09-09T09:52:10.502Z,58.22
2017-09-09T09:54:36.916Z,56.25
2017-09-09T09:57:03.263Z,56.32
2017-09-09T09:59:36.622Z,56.11
2017-09-09T10:02:07.768Z,56.68
2017-09-09T10:04:34.743Z,55.15
2017-09-09T10:07:03.398Z,52.58
2017-09-09T10:09:34.464Z,51.70
2017-09-09T10:12:09.225Z,51.47
2017-09-09T10:14:43.354Z,52.14
2017-09-09T10:17:16.765Z,50.91
2017-09-09T10:19:48.825Z,50.92
2017-09-09T10:22:20.352Z,49.43
2017-09-09T10:24:53.326Z,46.89
2017-09-09T10:27:25.696Z,47.13
2017-09-09T10:29:57.435Z,47.01
2017-09-09T10:32:29.745Z,48.89
2017-09-09T10:35:02.591Z,51.71
2017-09-09T10:37:35.958Z,51.33
2017-09-09T10:40:04.773Z,51.27
2017-09-09T10:42:33.604Z,53.57
2017-09-09T10:45:05.077Z,52.53
2017-09-09T10:47:31.876Z,54.56
2017-09-09T10:49:58.239Z,53.90
2017-09-09T10:52:24.683Z,55.71
2017-09-09T10:54:54.134Z,55.23
2017-09-09T10:57:20.643Z,57.38
2017-09-09T10:59:47.864Z,57.03
2017-09-09T11:02:14.284Z,58.00
2017-09-09T11:04:45.493Z,59.19
2017-09-09T11:07:16.125Z,60.53
2017-09-09T11:09:44.996Z,62.73
2017-09-09T11:12:13.581Z,65.20
2017-09-09T11:14:40.830Z,64.82
2017-09-09T11:17:10.695Z,64.34
2017-09-09T11:19:37.798Z,63.82
2017-09-09T11:22:10.682Z,63.99
2017-09-09T11:24:41.790Z,65.54
2017-09-09T11:27:12.998Z,65.63
2017-09-09T11:29:46.459Z,67.82
2017-09-09T11:32:16.401Z,70.27
2017-09-09T11:34:48.537Z,69.86
2017-09-09T11:37:20.454Z,70.64
2017-09-09T11:39:49.070Z,73.43
2017-09-09T11:42:22.032Z,73.29
2017-09-09T11:44:54.348Z,72.70
2017-09-09T11:47:21.320Z,74.08
2017-09-09T11:49:49.106Z,72.32
2017-09-09T11:52:20.334Z,72.50
2017-09-09T11:54:51.969Z,72.60
2017-09-09T11:57:23.972Z,74.25
2017-09-09T11:59:55.555Z,74.57
2017-09-09T12:02:28.016Z,75.76
2017-09-09T12:04:56.175Z,75.93
2017-09-09T12:07:24.758Z,75.26
2017-09-09T12:09:56.613Z,74.72
2017-09-09T12:12:29.792Z,76.28
2017-09-09T12:15:03.006Z,74.28
2017-09-09T12:17:29.690Z,75.36
2017-09-09T12:19:56.570Z,75.33
2017-09-09T12:22:23.733Z,76.25
2017-09-09T12:24:50.098Z,76.52
2017-09-09T12:27:16.450Z,75.12
2017-09-09T12:29:47.776Z,74.09
2017-09-09T12:32:33.950Z,74.33
2017-09-09T12:35:01.615Z,74.70
2017-09-09T12:37:30.474Z,75.40
2017-09-09T12:39:59.309Z,75.93
2017-09-09T12:42:32.372Z,76.56
2017-09-09T12:45:05.252Z,77.83
2017-09-09T12:47:37.594Z,78.44
2017-09-09T12:50:09.663Z,78.63
2017-09-09T12:52:44.067Z,80.08
2017-09-09T12:55:15.899Z,79.50
2017-09-09T12:57:49.216Z,80.50
2017-09-09T13:00:19.835Z,80.64
2017-09-09T13:02:51.545Z,83.29
2017-09-09T13:05:23.893Z,82.64
2017-09-09T13:07:56.001Z,82.15
2017-09-09T13:10:27.760Z,82.16
2017-09-09T13:12:55.903Z,82.21
2017-09-09T13:15:27.839Z,84.72
2017-09-09T13:17:54.535Z,84.63
2017-09-09T13:20:20.984Z,82.46
2017-09-09T13:22:47.418Z,84.59
2017-09-09T13:25:17.491Z,84.22
2017-09-09T13:27:47.939Z,84.04
2017-09-09T13:30:20.538Z,84.28
2017-09-09T13:32:53.686Z,84.91
2017-09-09T13:35:26.402Z,83.64
2017-09-09T13:37:56.796Z,83.96
2017-09-09T13:40:28.734Z,83.82
2017-09-09T13:42:56.058Z,85.18
2017-09-09T13:45:22.804Z,84.59
2017-09-09T13:47:55.443Z,85.58
2017-09-09T13:50:24.380Z,85.82
2017-09-09T13:52:56.511Z,86.46
2017-09-09T13:55:28.123Z,86.28
2017-09-09T13:57:56.976Z,85.04
2017-09-09T14:00:28.491Z,84.96
2017-09-09T14:03:01.073Z,85.09
2017-09-09T14:05:32.550Z,84.81
2017-09-09T14:08:04.689Z,84.96
2017-09-09T14:10:37.350Z,84.77
2017-09-09T14:13:13.613Z,84.59
2017-09-09T14:15:42.502Z,85.18
2017-09-09T14:18:14.994Z,85.91
2017-09-09T14:20:45.755Z,85.83
2017-09-09T14:23:18.736Z,86.16
2017-09-09T14:25:51.409Z,86.83
2017-09-09T14:28:22.533Z,86.89
2017-09-09T14:30:55.280Z,86.87
2017-09-09T14:33:29.190Z,86.90
2017-09-09T14:36:02.591Z,87.19
2017-09-09T14:38:29.106Z,87.19
2017-09-09T14:40:56.224Z,87.81
2017-09-09T14:43:30.006Z,88.01
2017-09-09T14:46:02.121Z,87.12
2017-09-09T14:48:33.906Z,87.40
2017-09-09T14:51:05.239Z,87.26
2017-09-09T14:53:33.173Z,88.40
2017-09-09T14:56:03.472Z,87.19
2017-09-09T14:58:36.148Z,87.59
2017-09-09T15:01:04.358Z,87.61
2017-09-09T15:03:30.726Z,86.84
2017-09-09T15:06:03.252Z,87.98
2017-09-09T15:08:37.137Z,89.26
2017-09-09T15:11:04.346Z,87.30
2017-09-09T15:13:32.316Z,87.73
2017-09-09T15:15:59.674Z,88.35
2017-09-09T15:18:27.104Z,89.10
2017-09-09T15:20:59.665Z,88.61
2017-09-09T15:23:31.269Z,89.14
2017-09-09T15:26:04.224Z,91.04
2017-09-09T15:28:35.668Z,89.84
2017-09-09T15:31:07.008Z,89.85
2017-09-09T15:33:37.888Z,90.24
2017-09-09T15:36:10.345Z,90.48
2017-09-09T15:38:42.604Z,90.54
2017-09-09T15:41:14.287Z,91.27
2017-09-09T15:43:46.272Z,91.09
2017-09-09T15:46:17.361Z,91.08
2017-09-09T15:48:48.864Z,91.29
2017-09-09T15:51:21.475Z,91.29
2017-09-09T15:53:53.213Z,91.87
2017-09-09T15:56:24.529Z,91.88
2017-09-09T15:58:56.013Z,91.63
2017-09-09T16:01:30.850Z,92.53
2017-09-09T16:04:03.621Z,92.28
2017-09-09T16:06:30.377Z,92.70
2017-09-09T16:08:56.614Z,91.79
2017-09-09T16:11:22.891Z,92.36
2017-09-09T16:13:49.940Z,92.33
2017-09-09T16:16:16.243Z,92.83
2017-09-09T16:18:42.938Z,92.52
2017-09-09T16:21:09.978Z,92.57
2017-09-09T16:23:36.959Z,92.62
2017-09-09T16:26:03.313Z,92.32
2017-09-09T16:28:29.558Z,92.00
2017-09-09T16:30:55.778Z,92.76
2017-09-09T16:46:29.010Z,94.23
2017-09-09T16:48:55.401Z,93.75
2017-09-09T16:51:21.625Z,93.11
2017-09-09T16:53:47.966Z,92.33
2017-09-09T16:56:15.581Z,92.94
2017-09-09T16:58:42.006Z,92.86
2017-09-09T17:01:08.363Z,94.60
2017-09-09T17:03:34.658Z,95.17
2017-09-09T17:06:01.187Z,94.58
2017-09-09T17:08:28.221Z,93.91
2017-09-09T17:10:54.443Z,95.05
2017-09-09T17:13:20.706Z,94.68
2017-09-09T17:15:46.977Z,93.84
2017-09-09T17:18:13.333Z,94.87
2017-09-09T17:20:39.641Z,95.92
2017-09-09T17:23:05.958Z,95.09
2017-09-09T17:25:32.205Z,95.54
2017-09-09T17:28:01.945Z,95.28
2017-09-09T17:30:28.314Z,94.30
2017-09-09T17:32:54.530Z,94.63
2017-09-09T17:35:20.815Z,94.78
2017-09-09T17:37:47.066Z,94.70
2017-09-09T17:40:13.293Z,94.66
2017-09-09T17:42:39.505Z,95.04
2017-09-09T17:45:05.762Z,94.49
2017-09-09T17:47:31.954Z,94.90
2017-09-09T17:49:58.366Z,95.00
2017-09-09T17:52:24.630Z,95.50
2017-09-09T17:54:50.889Z,94.57
2017-09-09T17:57:17.147Z,95.46
2017-09-09T17:59:43.505Z,96.63
2017-09-09T18:02:09.808Z,96.46
2017-09-09T18:04:36.166Z,95.51
2017-09-09T18:07:02.363Z,94.65
2017-09-09T18:09:28.656Z,94.87
2017-09-09T18:11:55.675Z,95.05
2017-09-09T18:14:22.030Z,96.64
2017-09-09T18:16:48.415Z,94.72
2017-09-09T18:19:14.630Z,94.81
2017-09-09T18:21:41.638Z,95.74
2017-09-09T18:24:07.990Z,96.81
2017-09-09T18:26:35.151Z,96.62
2017-09-09T18:29:01.508Z,94.69
2017-09-09T18:31:44.107Z,95.49
2017-09-09T18:34:10.534Z,95.15
2017-09-09T18:36:37.513Z,95.44
2017-09-09T18:39:04.530Z,95.83
2017-09-09T18:41:30.917Z,95.15
2017-09-09T18:43:58.003Z,95.23
2017-09-09T18:46:25.054Z,95.14
2017-09-09T18:48:51.799Z,94.60
2017-09-09T18:51:18.126Z,95.11
2017-09-09T18:53:44.673Z,95.66
2017-09-09T18:56:10.905Z,94.76
2017-09-09T18:58:38.496Z,95.02
2017-09-09T19:01:07.194Z,95.56
2017-09-09T19:03:33.874Z,95.29
2017-09-09T19:06:00.989Z,95.24
2017-09-09T19:08:31.318Z,95.15
2017-09-09T19:11:01.758Z,95.22
2017-09-09T19:13:34.001Z,94.90
2017-09-09T19:16:04.711Z,94.45
2017-09-09T19:18:35.745Z,94.77
2017-09-09T19:21:05.661Z,94.38
2017-09-09T19:23:38.326Z,95.86
2017-09-09T19:26:09.671Z,95.79
2017-09-09T19:28:41.360Z,95.81
2017-09-09T19:31:14.298Z,95.89
2017-09-09T19:33:44.426Z,95.91
2017-09-09T19:36:11.351Z,95.15
2017-09-09T19:38:37.727Z,95.17
2017-09-09T19:41:08.841Z,95.44
2017-09-09T19:43:40.882Z,95.27
2017-09-09T19:46:12.661Z,95.28
2017-09-09T19:48:44.420Z,95.11
2017-09-09T19:51:14.836Z,95.08
2017-09-09T19:53:44.460Z,95.30
2017-09-09T19:56:12.138Z,95.59
2017-09-09T19:58:38.405Z,95.84
2017-09-09T20:01:10.216Z,95.44
2017-09-09T20:03:44.955Z,95.79
2017-09-09T20:06:15.992Z,95.80
2017-09-09T20:08:46.702Z,95.69
2017-09-09T20:11:18.345Z,95.76
2017-09-09T20:13:45.342Z,95.63
2017-09-09T20:16:13.134Z,95.89
2017-09-09T20:18:44.412Z,96.09
2017-09-09T20:21:14.903Z,96.44
2017-09-09T20:23:53.648Z,96.15
2017-09-09T20:26:25.424Z,95.92
2017-09-09T20:28:53.072Z,95.96
2017-09-09T20:31:24.102Z,96.38
2017-09-09T20:33:50.761Z,96.87
2017-09-09T20:36:20.662Z,96.87
2017-09-09T20:38:51.873Z,96.80
2017-09-09T20:41:21.763Z,96.68
2017-09-09T20:43:51.373Z,96.87
2017-09-09T20:46:17.621Z,96.35
2017-09-09T20:48:50.905Z,96.69
2017-09-09T20:51:22.819Z,97.08
2017-09-09T20:53:55.251Z,96.84
2017-09-09T20:56:24.145Z,96.77
2017-09-09T20:58:50.678Z,96.73
2017-09-09T21:01:19.283Z,96.95
2017-09-09T21:03:49.893Z,97.25
2017-09-09T21:06:21.203Z,96.35
2017-09-09T21:08:51.970Z,96.87
2017-09-09T21:11:23.631Z,96.44
2017-09-09T21:13:51.621Z,96.88
2017-09-09T21:16:18.334Z,97.24
2017-09-09T21:18:48.962Z,96.69
2017-09-09T21:21:18.588Z,96.81
2017-09-09T21:23:48.447Z,96.37
2017-09-09T21:26:18.192Z,96.05
2017-09-09T21:28:44.660Z,96.19
2017-09-09T21:31:11.029Z,95.87
2017-09-09T21:33:38.023Z,95.86
2017-09-09T21:36:04.817Z,95.95
2017-09-09T21:38:31.105Z,95.95
2017-09-09T21:40:57.321Z,95.85
2017-09-09T21:43:23.594Z,96.19
2017-09-09T21:45:49.877Z,96.35
2017-09-09T21:48:16.110Z,96.11
2017-09-09T21:50:42.313Z,96.38
2017-09-09T21:53:08.493Z,96.20
2017-09-09T21:55:34.745Z,96.66
2017-09-09T21:58:00.968Z,96.09
2017-09-09T22:00:27.165Z,96.80
2017-09-09T22:02:54.164Z,96.71
2017-09-09T22:05:26.000Z,96.86
2017-09-09T22:07:52.867Z,96.72
2017-09-09T22:10:19.049Z,96.57
2017-09-09T22:12:46.025Z,96.08
2017-09-09T22:15:12.371Z,96.26
2017-09-09T22:17:38.624Z,95.97
2017-09-09T22:20:04.849Z,96.08
2017-09-09T22:22:31.066Z,96.26
2017-09-09T22:24:57.345Z,96.61
2017-09-09T22:27:23.610Z,96.74
2017-09-09T22:29:50.645Z,96.85
2017-09-09T22:32:17.861Z,96.68
2017-09-09T22:34:44.134Z,96.73
2017-09-09T22:37:10.761Z,96.37
2017-09-09T22:39:37.815Z,96.22
2017-09-09T22:42:04.041Z,96.79
2017-09-09T22:44:30.290Z,96.67
2017-09-09T22:46:56.607Z,96.55
2017-09-09T22:49:22.825Z,96.70
2017-09-09T22:51:49.298Z,96.74
2017-09-09T22:54:15.524Z,96.96
2017-09-09T22:56:41.761Z,97.28
2017-09-09T22:59:08.008Z,97.32
2017-09-09T23:01:34.228Z,97.11
2017-09-09T23:04:00.424Z,97.61
2017-09-09T23:06:26.677Z,97.29
2017-09-09T23:08:53.045Z,97.13
2017-09-09T23:11:19.257Z,97.22
2017-09-09T23:13:45.507Z,97.33
2017-09-09T23:16:11.958Z,97.14
2017-09-09T23:18:38.290Z,97.23
2017-09-09T23:21:05.517Z,97.19
2017-09-09T23:23:31.723Z,97.02
2017-09-09T23:25:57.978Z,96.81
2017-09-09T23:28:24.220Z,96.97
2017-09-09T23:30:50.574Z,96.95
2017-09-09T23:33:16.810Z,97.09
2017-09-09T23:35:43.041Z,97.39
2017-09-09T23:38:09.300Z,97.00
2017-09-09T23:40:35.602Z,97.04
2017-09-09T23:43:01.864Z,97.61
2017-09-09T23:45:28.073Z,97.83
2017-09-09T23:47:54.308Z,97.36
2017-09-09T23:50:20.505Z,97.20
2017-09-09T23:52:46.702Z,98.00
2017-09-09T23:55:12.971Z,97.71
2017-09-09T23:57:39.255Z,97.26
